Terminal Aerodrome Forecast
Issued by NWS

Home | Current Version | Previous Version | Text Only | Print | Product List | Glossary On
Versions: 1 2 3 4 5 6 7 8 9 10 11 12 13 14 15 16 17
000
FTUS45 KTFX 241700
TAFGTF
TAF
KGTF 241720Z 2418/2518 24015KT P6SM SCT090 BKN200
     FM250200 22020KT P6SM BKN080
     FM251500 36008KT P6SM OVC040 PROB30 2515/2518 2SM -SN OVC020=

USA.gov is the U.S. government's official web portal to all federal, state and local government web resources and services.